Terminal Aerodrome Forecast
Issued by NWS Atlanta, GA

Home | Current Version | Previous Version | Text Only | Print | Product List | Glossary On
Versions: 1 2 3 4 5 6 7 8 9 10 11 12 13 14 15 16 17 18
000
FTUS42 KFFC 261131
TAFCSG
TAF
KCSG 261131Z 2612/2712 36004KT P6SM SKC
     FM261300 04005KT P6SM SKC
     FM262000 12004KT P6SM SKC
     FM270900 11004KT P6SM BKN120=

USA.gov is the U.S. government's official web portal to all federal, state and local government web resources and services.